Accueil
METAR-TAF:

METAR-TAF

Aéroports :

Eureka, Nevada, États-Unis

latitude: 39-36-05N, longitude: 116-00-20W, altitude: 1812 m

Observation

Le bulletin a été fait il y a 1 heure et 11 minutes, à 20:53 UTC
Vent 7 kt de sud
Température 4°C
Humidité 65%
Pression 1002 hPa

METAR: KP68 202053Z AUTO 17007KT 04/M02 A2960 RMK AO1 SLP000 T00441022 55009

Heure: 14:04 (22:04 UTC)


TAF: absent

Observations et prévisions météorologiques de plus de 4000 aéroports (messages METAR et TAF).

Les stations disponibles sont représentées par des disques jaunes et rouges sur la carte.

Passer la souris dessus pour voir le nom de la station.

Cliquer dessus pour voir les observations et prévisions météorologiques.

Pour changer de carte: cliquez sur les boutons verts avec une croix noire pour zoomer, sur le bouton vert avec un tiret pour effectuer un zoom arrière, ou sur les flèches vertes pour les cartes adjacentes.


METAR-TAF: